createdAt,value
2019-02-22T00:01:56.334Z,3.00
2019-02-22T00:05:11.766Z,3.00
2019-02-22T00:08:27.079Z,3.40
2019-02-22T00:11:42.329Z,3.67
2019-02-22T00:14:55.866Z,3.17
2019-02-22T00:18:18.554Z,3.00
2019-02-22T00:21:33.807Z,3.00
2019-02-22T00:24:49.582Z,3.23
2019-02-22T00:28:05.430Z,3.33
2019-02-22T00:31:19.082Z,3.40
2019-02-22T00:34:41.852Z,3.00
2019-02-22T00:37:57.928Z,3.57
2019-02-22T00:41:13.878Z,2.70
2019-02-22T00:44:29.609Z,3.20
2019-02-22T00:47:45.523Z,2.93
2019-02-22T00:51:01.482Z,3.00
2019-02-22T00:54:17.377Z,2.93
2019-02-22T00:57:33.415Z,2.70
2019-02-22T01:00:49.228Z,2.93
2019-02-22T01:04:05.110Z,2.50
2019-02-22T01:07:20.306Z,2.87
2019-02-22T01:10:36.071Z,2.90
2019-02-22T01:13:51.857Z,2.50
2019-02-22T01:17:07.885Z,2.80
2019-02-22T01:20:23.965Z,2.80
2019-02-22T01:23:40.038Z,2.90
2019-02-22T01:26:55.521Z,2.80
2019-02-22T01:30:11.370Z,2.83
2019-02-22T01:33:27.119Z,2.70
2019-02-22T01:36:43.018Z,2.90
2019-02-22T01:39:59.134Z,2.17
2019-02-22T01:43:14.651Z,2.40
2019-02-22T01:46:30.687Z,2.50
2019-02-22T01:49:45.967Z,2.37
2019-02-22T01:53:02.070Z,2.53
2019-02-22T01:56:15.703Z,2.50
2019-02-22T01:59:38.394Z,2.30
2019-02-22T02:02:54.350Z,2.57
2019-02-22T02:06:09.645Z,2.40
2019-02-22T02:09:25.775Z,2.17
2019-02-22T02:12:39.385Z,2.43
2019-02-22T02:16:02.132Z,2.33
2019-02-22T02:19:15.803Z,2.30
2019-02-22T02:22:31.061Z,2.20
2019-02-22T02:25:46.259Z,2.30
2019-02-22T02:29:01.554Z,2.20
2019-02-22T02:32:17.253Z,2.00
2019-02-22T02:35:33.227Z,2.47
2019-02-22T02:38:49.162Z,2.40
2019-02-22T02:42:04.398Z,2.20
2019-02-22T02:45:20.377Z,2.20
2019-02-22T02:48:33.931Z,2.10
2019-02-22T02:51:49.183Z,1.90
2019-02-22T02:55:05.257Z,2.30
2019-02-22T02:58:21.331Z,2.20
2019-02-22T03:01:37.290Z,2.00
2019-02-22T03:04:53.022Z,2.10
2019-02-22T03:08:06.736Z,1.90
2019-02-22T03:11:29.427Z,1.90
2019-02-22T03:14:45.307Z,1.80
2019-02-22T03:18:01.197Z,2.07
2019-02-22T03:21:17.425Z,2.17
2019-02-22T03:24:32.955Z,1.83
2019-02-22T03:27:48.253Z,1.87
2019-02-22T03:31:04.117Z,1.80
2019-02-22T03:34:20.074Z,1.90
2019-02-22T03:37:36.159Z,1.80
2019-02-22T03:40:51.403Z,1.70
2019-02-22T03:44:06.733Z,1.67
2019-02-22T03:47:22.019Z,1.97
2019-02-22T03:50:38.291Z,2.10
2019-02-22T03:53:57.412Z,1.80
2019-02-22T03:57:12.594Z,1.97
2019-02-22T04:00:27.847Z,1.60
2019-02-22T04:03:43.922Z,2.10
2019-02-22T04:06:59.870Z,1.80
2019-02-22T04:10:15.851Z,1.80
2019-02-22T04:13:31.988Z,1.90
2019-02-22T04:16:47.959Z,1.77
2019-02-22T04:20:03.385Z,1.60
2019-02-22T04:23:16.960Z,1.30
2019-02-22T04:26:39.651Z,1.73
2019-02-22T04:29:55.699Z,1.53
2019-02-22T04:33:11.070Z,1.53
2019-02-22T04:36:27.111Z,1.30
2019-02-22T04:39:43.051Z,1.40
2019-02-22T04:42:58.343Z,1.33
2019-02-22T04:46:14.224Z,1.80
2019-02-22T04:49:30.027Z,1.43
2019-02-22T04:52:43.679Z,1.30
2019-02-22T04:56:06.372Z,1.60
2019-02-22T04:59:21.580Z,1.30
2019-02-22T05:02:37.114Z,1.30
2019-02-22T05:05:53.108Z,1.63
2019-02-22T05:09:08.494Z,1.40
2019-02-22T05:12:23.826Z,1.20
2019-02-22T05:15:39.922Z,1.57
2019-02-22T05:18:55.170Z,1.50
2019-02-22T05:22:11.013Z,1.10
2019-02-22T05:25:24.602Z,1.43
2019-02-22T05:28:39.867Z,1.23
2019-02-22T05:31:55.663Z,1.20
2019-02-22T05:35:10.802Z,1.80
2019-02-22T05:38:26.652Z,1.27
2019-02-22T05:41:42.507Z,1.30
2019-02-22T05:44:58.555Z,1.20
2019-02-22T05:48:14.551Z,1.40
2019-02-22T05:51:28.142Z,1.30
2019-02-22T05:54:50.835Z,1.10
2019-02-22T05:58:06.856Z,1.10
2019-02-22T06:01:22.671Z,1.17
2019-02-22T06:04:36.328Z,1.20
2019-02-22T06:07:51.622Z,1.20
2019-02-22T06:11:07.454Z,1.03
2019-02-22T06:14:23.298Z,1.00
2019-02-22T06:17:39.422Z,1.33
2019-02-22T06:20:55.311Z,1.23
2019-02-22T06:24:10.674Z,1.20
2019-02-22T06:27:26.635Z,1.10
2019-02-22T06:30:42.759Z,1.10
2019-02-22T06:33:58.814Z,1.00
2019-02-22T06:37:14.715Z,1.03
2019-02-22T06:40:30.647Z,0.90
2019-02-22T06:43:44.286Z,1.00
2019-02-22T06:47:06.988Z,0.90
2019-02-22T06:50:33.166Z,1.00
2019-02-22T06:53:40.143Z,1.10
2019-02-22T06:56:56.102Z,1.00
2019-02-22T07:00:11.735Z,1.13
2019-02-22T07:03:27.831Z,1.17
2019-02-22T07:06:43.217Z,1.00
2019-02-22T07:09:59.281Z,1.23
2019-02-22T07:13:14.880Z,0.90
2019-02-22T07:16:30.810Z,1.30
2019-02-22T07:19:46.686Z,1.10
2019-02-22T07:23:02.844Z,1.00
2019-02-22T07:26:18.049Z,0.90
2019-02-22T07:33:07.639Z,1.03
2019-02-22T07:36:23.403Z,0.90
2019-02-22T07:46:27.305Z,0.90
2019-02-22T07:49:43.214Z,0.80
2019-02-22T07:52:59.360Z,0.90
2019-02-22T07:56:14.571Z,0.80
2019-02-22T07:59:30.454Z,0.90
2019-02-22T08:02:44.041Z,0.90
2019-02-22T08:05:59.395Z,1.00
2019-02-22T08:09:15.079Z,1.00
2019-02-22T08:12:30.298Z,1.00
2019-02-22T08:15:46.223Z,1.00
2019-02-22T08:19:02.108Z,0.80
2019-02-22T08:22:19.914Z,0.90
2019-02-22T08:25:35.234Z,0.97
2019-02-22T08:28:51.283Z,0.80
2019-02-22T08:32:06.895Z,0.90
2019-02-22T08:35:23.018Z,0.90
2019-02-22T08:38:38.765Z,0.93
2019-02-22T08:41:54.748Z,0.80
2019-02-22T08:45:10.777Z,0.80
2019-02-22T08:48:26.360Z,0.80
2019-02-22T08:51:41.934Z,0.93
2019-02-22T08:54:57.627Z,0.90
2019-02-22T08:58:12.880Z,0.90
2019-02-22T09:01:29.014Z,0.80
2019-02-22T09:04:45.055Z,0.77
2019-02-22T09:08:00.635Z,0.87
2019-02-22T09:11:16.701Z,0.77
2019-02-22T09:14:32.712Z,0.80
2019-02-22T09:17:48.846Z,0.90
2019-02-22T09:21:04.894Z,0.90
2019-02-22T09:24:20.873Z,0.90
2019-02-22T09:27:36.591Z,0.80
2019-02-22T09:30:52.408Z,0.83
2019-02-22T09:34:08.575Z,0.73
2019-02-22T09:37:24.386Z,0.97
2019-02-22T09:40:40.504Z,0.97
2019-02-22T09:43:56.348Z,0.77
2019-02-22T09:47:11.711Z,0.73
2019-02-22T09:50:27.394Z,0.73
2019-02-22T09:53:43.443Z,0.80
2019-02-22T09:57:01.785Z,0.70
2019-02-22T10:00:16.815Z,0.80
2019-02-22T10:03:32.653Z,0.90
2019-02-22T10:06:48.667Z,0.70
2019-02-22T10:10:04.899Z,0.70
2019-02-22T10:13:20.342Z,0.97
2019-02-22T10:16:35.529Z,0.80
2019-02-22T10:19:50.910Z,1.07
2019-02-22T10:23:06.764Z,0.70
2019-02-22T10:26:22.596Z,0.90
2019-02-22T10:29:38.204Z,0.87
2019-02-22T10:32:54.306Z,1.00
2019-02-22T10:36:09.503Z,0.70
2019-02-22T10:39:23.110Z,0.83
2019-02-22T10:42:38.430Z,0.90
2019-02-22T10:45:54.071Z,0.87
2019-02-22T10:49:09.800Z,0.80
2019-02-22T10:52:25.036Z,1.00
2019-02-22T10:55:40.277Z,1.20
2019-02-22T10:58:53.874Z,1.33
2019-02-22T11:02:09.235Z,1.53
2019-02-22T11:05:12.581Z,1.00
2019-02-22T11:08:16.867Z,1.10
2019-02-22T11:11:20.168Z,1.27
2019-02-22T11:14:42.846Z,1.20
2019-02-22T11:18:00.052Z,1.40
2019-02-22T11:21:15.428Z,1.70
2019-02-22T11:24:31.367Z,1.50
2019-02-22T11:27:47.275Z,1.50
2019-02-22T11:31:02.925Z,1.67
2019-02-22T11:34:18.701Z,1.57
2019-02-22T11:37:34.572Z,1.33
2019-02-22T11:40:50.221Z,1.40
2019-02-22T11:44:05.966Z,1.43
2019-02-22T11:47:21.215Z,1.50
2019-02-22T11:50:37.273Z,1.90
2019-02-22T11:53:52.958Z,1.80
2019-02-22T11:57:09.019Z,1.60
2019-02-22T12:00:26.166Z,1.70
2019-02-22T12:03:48.878Z,1.67
2019-02-22T12:07:11.611Z,2.07
2019-02-22T12:10:27.594Z,2.10
2019-02-22T12:13:42.833Z,2.67
2019-02-22T12:16:58.974Z,2.70
2019-02-22T12:20:15.273Z,2.63
2019-02-22T12:23:31.359Z,2.37
2019-02-22T12:26:46.680Z,2.50
2019-02-22T12:30:02.712Z,2.93
2019-02-22T12:33:18.019Z,2.53
2019-02-22T12:36:34.906Z,2.80
2019-02-22T12:39:50.511Z,2.57
2019-02-22T12:43:05.878Z,3.00
2019-02-22T12:46:21.187Z,2.77
2019-02-22T12:49:37.150Z,2.93
2019-02-22T12:52:53.280Z,2.80
2019-02-22T12:56:09.155Z,2.63
2019-02-22T12:59:25.029Z,2.63
2019-02-22T13:02:40.737Z,2.90
2019-02-22T13:05:56.666Z,2.60
2019-02-22T13:09:11.931Z,2.67
2019-02-22T13:12:27.867Z,2.60
2019-02-22T13:15:43.995Z,2.57
2019-02-22T13:19:00.023Z,2.73
2019-02-22T13:22:16.011Z,2.23
2019-02-22T13:25:31.390Z,2.50
2019-02-22T13:28:47.450Z,2.40
2019-02-22T13:32:02.926Z,2.47
2019-02-22T13:35:18.943Z,2.30
2019-02-22T13:38:35.089Z,2.60
2019-02-22T13:41:50.292Z,2.57
2019-02-22T13:45:06.299Z,2.43
2019-02-22T13:48:21.539Z,2.30
2019-02-22T13:51:36.980Z,2.20
2019-02-22T13:54:50.615Z,2.67
2019-02-22T13:58:06.555Z,2.30
2019-02-22T14:01:22.371Z,2.27
2019-02-22T14:04:36.778Z,2.50
2019-02-22T14:07:52.198Z,2.13
2019-02-22T14:11:08.173Z,2.27
2019-02-22T14:14:23.383Z,2.03
2019-02-22T14:17:38.797Z,2.30
2019-02-22T14:20:54.970Z,2.37
2019-02-22T14:26:05.646Z,2.70
2019-02-22T14:27:47.635Z,2.17
2019-02-22T14:31:03.478Z,2.30
2019-02-22T14:34:19.427Z,2.40
2019-02-22T14:37:35.156Z,2.40
2019-02-22T14:40:51.155Z,2.73
2019-02-22T14:44:07.811Z,2.30
2019-02-22T14:47:23.239Z,2.50
2019-02-22T14:50:38.987Z,2.17
2019-02-22T14:53:42.310Z,1.90
2019-02-22T14:57:05.021Z,2.17
2019-02-22T15:00:27.713Z,2.47
2019-02-22T15:03:43.806Z,2.23
2019-02-22T15:06:59.880Z,2.30
2019-02-22T15:10:18.265Z,2.40
2019-02-22T15:13:32.856Z,2.20
2019-02-22T15:20:15.551Z,1.80
2019-02-22T15:23:18.805Z,2.30
2019-02-22T15:26:41.494Z,2.00
2019-02-22T15:30:25.125Z,2.13
2019-02-22T15:33:40.357Z,1.83
2019-02-22T15:36:55.619Z,2.07
2019-02-22T15:40:10.839Z,1.77
2019-02-22T15:43:26.681Z,2.03
2019-02-22T15:46:42.779Z,1.83
2019-02-22T15:49:58.088Z,2.10
2019-02-22T15:53:14.212Z,1.80
2019-02-22T15:56:30.279Z,2.53
2019-02-22T15:59:45.475Z,2.13
2019-02-22T16:02:48.739Z,2.37
2019-02-22T16:06:11.443Z,2.20
2019-02-22T16:09:27.238Z,2.37
2019-02-22T16:12:43.000Z,2.40
2019-02-22T16:15:59.022Z,2.40
2019-02-22T16:19:14.289Z,2.37
2019-02-22T16:22:29.562Z,2.43
2019-02-22T16:25:45.493Z,2.37
2019-02-22T16:29:00.748Z,2.47
2019-02-22T16:35:47.438Z,2.00
2019-02-22T16:39:10.130Z,1.90
2019-02-22T16:42:25.863Z,2.10
2019-02-22T16:45:41.215Z,1.80
2019-02-22T16:48:54.791Z,2.10
2019-02-22T16:52:17.475Z,2.20
2019-02-22T16:55:36.043Z,1.80
2019-02-22T16:58:51.424Z,1.87
2019-02-22T17:02:06.711Z,2.37
2019-02-22T17:05:22.725Z,2.03
2019-02-22T17:08:36.291Z,2.10
2019-02-22T17:12:06.020Z,1.83
2019-02-22T17:15:16.313Z,2.00
2019-02-22T17:18:32.205Z,2.30
2019-02-22T17:21:48.032Z,2.07
2019-02-22T17:25:03.655Z,2.33
2019-02-22T17:28:19.456Z,2.47
2019-02-22T17:31:35.014Z,2.60
2019-02-22T17:34:50.983Z,2.00
2019-02-22T17:38:06.906Z,2.20
2019-02-22T17:41:22.669Z,2.20
2019-02-22T17:44:36.211Z,1.90
2019-02-22T17:47:39.528Z,2.33
2019-02-22T17:51:02.257Z,1.73
2019-02-22T17:54:17.510Z,2.27
2019-02-22T17:57:32.808Z,1.83
2019-02-22T18:00:48.424Z,2.00
2019-02-22T18:04:04.195Z,2.00
2019-02-22T18:07:19.502Z,2.27
2019-02-22T18:10:34.719Z,2.20
2019-02-22T18:13:49.954Z,2.10
2019-02-22T18:17:08.401Z,1.60
2019-02-22T18:20:11.092Z,1.90
2019-02-22T18:23:33.781Z,2.40
2019-02-22T18:26:56.492Z,2.20
2019-02-22T18:30:12.598Z,1.87
2019-02-22T18:33:28.610Z,1.97
2019-02-22T18:36:44.532Z,2.20
2019-02-22T18:39:59.722Z,2.27
2019-02-22T18:43:02.988Z,2.27
2019-02-22T18:46:25.685Z,2.13
2019-02-22T18:49:48.368Z,2.23
2019-02-22T18:53:11.065Z,2.03
2019-02-22T18:56:33.764Z,1.83
2019-02-22T18:59:49.038Z,2.17
2019-02-22T19:03:04.246Z,2.20
2019-02-22T19:06:20.035Z,1.70
2019-02-22T19:09:35.653Z,1.80
2019-02-22T19:12:51.668Z,2.07
2019-02-22T19:16:07.659Z,2.00
2019-02-22T19:19:23.714Z,1.90
2019-02-22T19:22:39.804Z,2.13
2019-02-22T19:25:55.401Z,2.20
2019-02-22T19:29:11.018Z,1.90
2019-02-22T19:32:26.755Z,2.33
2019-02-22T19:35:42.047Z,2.17
2019-02-22T19:38:57.841Z,2.60
2019-02-22T19:42:13.671Z,1.90
2019-02-22T19:45:29.451Z,2.20
2019-02-22T19:48:44.730Z,2.30
2019-02-22T19:51:48.178Z,2.10
2019-02-22T19:55:31.836Z,2.57
2019-02-22T19:58:35.467Z,2.30
2019-02-22T20:01:58.176Z,2.27
2019-02-22T20:05:20.871Z,2.10
2019-02-22T20:08:36.089Z,2.27
2019-02-22T20:11:52.181Z,2.10
2019-02-22T20:15:08.122Z,2.13
2019-02-22T20:18:23.519Z,1.90
2019-02-22T20:21:39.544Z,2.20
2019-02-22T20:24:55.528Z,2.30
2019-02-22T20:28:11.255Z,2.33
2019-02-22T20:31:27.190Z,2.00
2019-02-22T20:34:43.339Z,2.17
2019-02-22T20:37:59.191Z,2.57
2019-02-22T20:41:14.428Z,2.37
2019-02-22T20:44:30.469Z,2.50
2019-02-22T20:47:46.028Z,2.40
2019-02-22T20:51:01.353Z,2.20
2019-02-22T20:54:17.446Z,2.40
2019-02-22T20:57:34.823Z,2.30
2019-02-22T21:00:50.139Z,2.10
2019-02-22T21:04:06.323Z,2.10
2019-02-22T21:07:21.995Z,2.03
2019-02-22T21:10:35.618Z,2.03
2019-02-22T21:13:58.292Z,2.33
2019-02-22T21:17:14.142Z,2.37
2019-02-22T21:20:30.011Z,2.30
2019-02-22T21:23:45.847Z,2.17
2019-02-22T21:27:01.950Z,2.20
2019-02-22T21:30:18.049Z,2.80
2019-02-22T21:33:33.885Z,2.30
2019-02-22T21:36:49.170Z,2.87
2019-02-22T21:40:04.718Z,2.70
2019-02-22T21:43:18.286Z,2.47
2019-02-22T21:49:55.700Z,2.70
2019-02-22T21:53:18.375Z,2.67
2019-02-22T21:56:34.162Z,2.73
2019-02-22T21:59:49.982Z,3.50
2019-02-22T22:03:06.032Z,2.83
2019-02-22T22:06:21.674Z,3.07
2019-02-22T22:09:37.750Z,3.10
2019-02-22T22:12:52.996Z,3.10
2019-02-22T22:16:09.007Z,3.10
2019-02-22T22:19:24.937Z,3.13
2019-02-22T22:22:40.795Z,3.00
2019-02-22T22:25:56.674Z,3.40
2019-02-22T22:28:59.968Z,3.37
2019-02-22T22:32:22.658Z,3.20
2019-02-22T22:35:45.365Z,3.20
2019-02-22T22:39:00.784Z,3.20
2019-02-22T22:42:14.439Z,3.20
2019-02-22T22:45:37.195Z,3.23
2019-02-22T22:48:52.655Z,3.00
2019-02-22T22:52:08.699Z,3.33
2019-02-22T22:55:22.321Z,3.43
2019-02-22T22:58:25.587Z,3.07
2019-02-22T23:01:48.286Z,3.20
2019-02-22T23:05:10.970Z,3.30
2019-02-22T23:08:33.650Z,3.20
2019-02-22T23:11:49.478Z,3.27
2019-02-22T23:15:03.102Z,3.37
2019-02-22T23:18:18.849Z,3.20
2019-02-22T23:21:34.604Z,3.30
2019-02-22T23:24:48.218Z,3.00
2019-02-22T23:28:03.874Z,3.47
2019-02-22T23:31:17.443Z,3.60
2019-02-22T23:34:32.794Z,3.37
2019-02-22T23:37:48.660Z,3.43
2019-02-22T23:41:03.919Z,3.37
2019-02-22T23:44:20.039Z,3.70
2019-02-22T23:47:35.281Z,3.43
2019-02-22T23:50:51.374Z,3.43
2019-02-22T23:54:07.198Z,3.10
2019-02-22T23:57:23.437Z,3.70
